createdAt,value
2018-06-10T00:00:40.604Z,13.60
2018-06-10T00:02:52.930Z,13.93
2018-06-10T00:05:05.366Z,12.50
2018-06-10T00:07:17.743Z,14.37
2018-06-10T00:09:30.126Z,14.73
2018-06-10T00:11:42.530Z,14.87
2018-06-10T00:13:54.986Z,15.47
2018-06-10T00:16:07.398Z,16.00
2018-06-10T00:18:19.757Z,15.63
2018-06-10T00:20:32.153Z,11.87
2018-06-10T00:22:44.517Z,15.63
2018-06-10T00:24:56.957Z,15.03
2018-06-10T00:27:09.291Z,14.57
2018-06-10T00:29:22.415Z,15.00
2018-06-10T00:31:34.766Z,15.73
2018-06-10T00:33:47.162Z,14.10
2018-06-10T00:35:59.519Z,14.27
2018-06-10T00:38:11.876Z,14.63
2018-06-10T00:40:24.262Z,15.17
2018-06-10T00:42:36.846Z,15.03
2018-06-10T00:44:49.186Z,14.67
2018-06-10T00:47:01.581Z,15.23
2018-06-10T00:49:14.119Z,15.23
2018-06-10T00:51:26.530Z,16.03
2018-06-10T00:53:38.905Z,15.70
2018-06-10T00:55:51.282Z,16.63
2018-06-10T00:58:03.660Z,15.53
2018-06-10T01:00:16.055Z,16.53
2018-06-10T01:02:28.511Z,16.70
2018-06-10T01:04:40.953Z,15.90
2018-06-10T01:06:53.359Z,16.00
2018-06-10T01:09:08.433Z,15.67
2018-06-10T01:11:20.733Z,17.77
2018-06-10T01:13:33.081Z,16.17
2018-06-10T01:15:45.390Z,17.10
2018-06-10T01:17:57.750Z,17.93
2018-06-10T01:20:10.138Z,17.10
2018-06-10T01:22:22.562Z,17.33
2018-06-10T01:24:34.962Z,16.43
2018-06-10T01:26:49.322Z,17.33
2018-06-10T01:29:01.713Z,16.57
2018-06-10T01:31:14.121Z,16.87
2018-06-10T01:33:26.743Z,17.00
2018-06-10T01:35:39.102Z,17.13
2018-06-10T01:37:51.486Z,16.47
2018-06-10T01:40:03.846Z,16.90
2018-06-10T01:42:16.218Z,14.67
2018-06-10T01:44:28.692Z,17.70
2018-06-10T01:46:41.072Z,14.77
2018-06-10T01:48:53.457Z,17.17
2018-06-10T01:51:05.915Z,16.93
2018-06-10T01:53:18.335Z,15.20
2018-06-10T01:55:30.722Z,15.40
2018-06-10T01:57:43.063Z,16.93
2018-06-10T01:59:55.428Z,18.40
2018-06-10T02:02:07.809Z,18.17
2018-06-10T02:04:20.173Z,18.63
2018-06-10T02:06:32.531Z,18.10
2018-06-10T02:08:44.894Z,16.67
2018-06-10T02:10:57.250Z,17.77
2018-06-10T02:13:09.655Z,18.90
2018-06-10T02:15:22.137Z,14.90
2018-06-10T02:17:34.496Z,18.30
2018-06-10T02:19:46.918Z,18.70
2018-06-10T02:21:59.286Z,17.97
2018-06-10T02:24:11.668Z,18.90
2018-06-10T02:26:24.063Z,17.20
2018-06-10T02:28:36.752Z,17.97
2018-06-10T02:30:49.122Z,15.40
2018-06-10T02:33:01.487Z,19.87
2018-06-10T02:35:13.878Z,17.13
2018-06-10T02:37:26.294Z,17.53
2018-06-10T02:39:38.754Z,21.13
2018-06-10T02:41:51.143Z,21.50
2018-06-10T02:44:03.621Z,22.07
2018-06-10T02:46:16.081Z,20.63
2018-06-10T02:48:28.516Z,15.20
2018-06-10T02:50:40.990Z,20.57
2018-06-10T02:52:53.348Z,20.47
2018-06-10T02:55:05.736Z,21.53
2018-06-10T02:57:18.169Z,22.13
2018-06-10T02:59:30.704Z,21.73
2018-06-10T03:01:43.094Z,18.33
2018-06-10T03:03:55.510Z,20.80
2018-06-10T03:06:07.901Z,20.53
2018-06-10T03:08:20.275Z,18.33
2018-06-10T03:10:32.928Z,19.00
2018-06-10T03:12:45.299Z,20.93
2018-06-10T03:14:57.672Z,18.93
2018-06-10T03:17:10.179Z,17.77
2018-06-10T03:19:22.544Z,16.93
2018-06-10T03:21:34.999Z,15.70
2018-06-10T03:23:47.414Z,17.23
2018-06-10T03:25:59.805Z,17.60
2018-06-10T03:28:12.336Z,18.07
2018-06-10T03:30:24.787Z,19.17
2018-06-10T03:32:37.220Z,18.93
2018-06-10T03:34:49.595Z,19.03
2018-06-10T03:37:01.970Z,13.80
2018-06-10T03:39:14.374Z,14.80
2018-06-10T03:41:27.022Z,19.27
2018-06-10T03:43:39.415Z,18.47
2018-06-10T03:45:51.905Z,19.43
2018-06-10T03:48:04.493Z,16.20
2018-06-10T03:50:16.904Z,18.13
2018-06-10T03:52:29.259Z,19.57
2018-06-10T03:54:41.615Z,18.80
2018-06-10T03:56:54.083Z,20.47
2018-06-10T03:59:06.444Z,18.93
2018-06-10T04:01:18.882Z,20.13
2018-06-10T04:03:31.270Z,17.93
2018-06-10T04:05:43.657Z,18.67
2018-06-10T04:07:56.023Z,19.40
2018-06-10T04:10:08.393Z,19.70
2018-06-10T04:12:20.773Z,19.47
2018-06-10T04:14:33.154Z,19.97
2018-06-10T04:16:45.616Z,22.30
2018-06-10T04:18:57.994Z,22.30
2018-06-10T04:21:10.498Z,22.00
2018-06-10T04:23:23.121Z,18.37
2018-06-10T04:28:01.490Z,13.83
2018-06-10T04:30:13.927Z,19.17
2018-06-10T04:32:26.391Z,20.57
2018-06-10T04:34:39.002Z,20.40
2018-06-10T04:36:51.391Z,19.90
2018-06-10T04:39:06.103Z,19.93
2018-06-10T04:41:18.432Z,20.83
2018-06-10T04:43:30.834Z,20.07
2018-06-10T04:45:43.314Z,20.53
2018-06-10T04:47:55.662Z,18.20
2018-06-10T04:50:08.194Z,16.53
2018-06-10T04:52:20.566Z,16.67
2018-06-10T04:54:32.970Z,16.73
2018-06-10T04:56:45.426Z,15.50
2018-06-10T04:58:57.811Z,10.70
2018-06-10T05:01:10.173Z,12.07
2018-06-10T05:03:22.540Z,10.93
2018-06-10T05:05:35.087Z,13.87
2018-06-10T05:07:47.659Z,11.50
2018-06-10T05:10:00.005Z,14.17
2018-06-10T05:12:12.393Z,15.00
2018-06-10T05:14:24.834Z,11.30
2018-06-10T05:16:37.311Z,12.17
2018-06-10T05:18:49.659Z,10.57
2018-06-10T05:21:02.158Z,12.37
2018-06-10T05:23:14.589Z,12.33
2018-06-10T05:25:29.428Z,13.13
2018-06-10T05:27:41.925Z,12.07
2018-06-10T05:29:54.312Z,10.80
2018-06-10T05:32:06.754Z,13.47
2018-06-10T05:34:19.158Z,15.10
2018-06-10T05:36:31.641Z,15.70
2018-06-10T05:38:43.982Z,16.90
2018-06-10T05:40:56.402Z,15.67
2018-06-10T05:43:08.797Z,15.20
2018-06-10T05:45:21.191Z,14.33
2018-06-10T05:47:33.619Z,17.27
2018-06-10T05:49:46.090Z,14.83
2018-06-10T05:51:58.254Z,14.80
2018-06-10T05:54:10.673Z,16.43
2018-06-10T05:56:23.051Z,15.97
2018-06-10T05:58:35.494Z,16.87
2018-06-10T06:00:47.837Z,19.53
2018-06-10T06:03:00.213Z,17.60
2018-06-10T06:05:12.636Z,16.13
2018-06-10T06:07:25.059Z,17.20
2018-06-10T06:09:37.688Z,20.43
2018-06-10T06:11:50.033Z,19.80
2018-06-10T06:14:02.579Z,21.40
2018-06-10T06:16:14.954Z,22.57
2018-06-10T06:18:27.657Z,24.83
2018-06-10T06:20:40.308Z,23.80
2018-06-10T06:22:52.741Z,21.67
2018-06-10T06:25:05.174Z,20.80
2018-06-10T06:27:17.582Z,20.43
2018-06-10T06:29:29.951Z,19.83
2018-06-10T06:31:42.546Z,20.40
2018-06-10T06:33:55.089Z,18.27
2018-06-10T06:36:07.512Z,18.90
2018-06-10T06:38:19.922Z,19.27
2018-06-10T06:40:32.362Z,18.50
2018-06-10T06:42:44.781Z,20.50
2018-06-10T06:44:57.272Z,20.50
2018-06-10T06:47:09.647Z,21.37
2018-06-10T06:49:22.010Z,20.33
2018-06-10T06:51:34.518Z,20.50
2018-06-10T06:53:46.962Z,21.13
2018-06-10T06:55:59.355Z,20.00
2018-06-10T06:58:11.906Z,19.43
2018-06-10T07:00:24.326Z,23.30
2018-06-10T07:02:36.749Z,23.57
2018-06-10T07:04:49.117Z,22.37
2018-06-10T07:07:01.553Z,22.00
2018-06-10T07:09:14.189Z,21.60
2018-06-10T07:11:26.624Z,20.77
2018-06-10T07:13:38.992Z,20.43
2018-06-10T07:15:51.492Z,23.47
2018-06-10T07:18:04.011Z,22.83
2018-06-10T07:20:16.474Z,20.13
2018-06-10T07:22:28.876Z,19.93
2018-06-10T07:24:41.272Z,21.37
2018-06-10T07:26:53.623Z,18.30
2018-06-10T07:29:06.071Z,21.53
2018-06-10T07:31:18.440Z,17.57
2018-06-10T07:33:30.888Z,22.17
2018-06-10T07:35:43.412Z,19.73
2018-06-10T07:37:55.837Z,19.57
2018-06-10T07:40:08.317Z,19.00
2018-06-10T07:42:20.714Z,19.47
2018-06-10T07:44:33.100Z,18.40
2018-06-10T07:46:45.460Z,18.93
2018-06-10T07:48:57.959Z,16.87
2018-06-10T07:51:10.397Z,18.77
2018-06-10T07:53:22.763Z,18.10
2018-06-10T07:55:35.151Z,16.17
2018-06-10T07:57:47.579Z,20.27
2018-06-10T08:00:00.036Z,19.70
2018-06-10T08:02:12.362Z,18.40
2018-06-10T08:04:24.821Z,20.63
2018-06-10T08:06:38.212Z,19.77
2018-06-10T08:08:50.685Z,19.53
2018-06-10T08:11:03.094Z,20.67
2018-06-10T08:13:15.463Z,18.67
2018-06-10T08:15:28.018Z,20.93
2018-06-10T08:17:40.455Z,19.73
2018-06-10T08:19:52.911Z,21.43
2018-06-10T08:22:05.449Z,21.93
2018-06-10T08:24:17.997Z,20.37
2018-06-10T08:26:30.463Z,21.93
2018-06-10T08:28:42.856Z,18.57
2018-06-10T08:30:55.347Z,19.23
2018-06-10T08:33:07.746Z,21.20
2018-06-10T08:35:20.207Z,20.87
2018-06-10T08:37:32.651Z,18.90
2018-06-10T08:39:45.075Z,21.87
2018-06-10T08:41:57.452Z,17.47
2018-06-10T08:44:09.847Z,19.87
2018-06-10T08:46:22.426Z,19.73
2018-06-10T08:48:34.776Z,21.13
2018-06-10T08:50:47.195Z,17.33
2018-06-10T08:52:59.695Z,19.93
2018-06-10T08:55:12.234Z,20.50
2018-06-10T08:57:24.711Z,20.33
2018-06-10T08:59:37.121Z,20.13
2018-06-10T09:01:49.512Z,17.33
2018-06-10T09:04:02.960Z,20.73
2018-06-10T09:06:15.418Z,17.90
2018-06-10T09:08:27.911Z,19.47
2018-06-10T09:10:40.455Z,20.03
2018-06-10T09:12:52.835Z,20.67
2018-06-10T09:15:05.271Z,19.10
2018-06-10T09:17:17.813Z,19.50
2018-06-10T09:19:30.186Z,19.63
2018-06-10T09:21:42.667Z,18.53
2018-06-10T09:23:55.046Z,18.63
2018-06-10T09:26:07.558Z,19.00
2018-06-10T09:28:19.958Z,18.30
2018-06-10T09:30:32.404Z,19.50
2018-06-10T09:32:44.820Z,18.83
2018-06-10T09:34:57.282Z,18.83
2018-06-10T09:37:09.820Z,17.90
2018-06-10T09:39:22.326Z,19.07
2018-06-10T09:41:35.003Z,17.60
2018-06-10T09:43:47.423Z,16.73
2018-06-10T09:45:59.945Z,18.50
2018-06-10T09:48:12.416Z,17.93
2018-06-10T09:50:24.830Z,16.97
2018-06-10T09:52:37.235Z,16.67
2018-06-10T09:54:49.715Z,16.67
2018-06-10T09:57:02.117Z,17.80
2018-06-10T09:59:14.614Z,17.50
2018-06-10T10:01:27.051Z,17.77
2018-06-10T10:03:39.550Z,17.70
2018-06-10T10:05:51.959Z,16.70
2018-06-10T10:08:04.478Z,15.33
2018-06-10T10:10:16.870Z,17.47
2018-06-10T10:12:29.246Z,17.23
2018-06-10T10:14:41.799Z,16.10
2018-06-10T10:16:54.227Z,14.70
2018-06-10T10:19:06.623Z,15.77
2018-06-10T10:21:19.026Z,16.07
2018-06-10T10:23:31.458Z,16.07
2018-06-10T10:25:43.910Z,16.47
2018-06-10T10:27:56.294Z,16.87
2018-06-10T10:30:08.691Z,15.93
2018-06-10T10:32:21.130Z,17.07
2018-06-10T10:34:33.591Z,16.17
2018-06-10T10:36:46.004Z,15.60
2018-06-10T10:38:58.434Z,15.50
2018-06-10T10:41:10.908Z,15.47
2018-06-10T10:43:23.339Z,14.87
2018-06-10T10:45:35.751Z,15.57
2018-06-10T10:47:48.155Z,14.00
2018-06-10T10:50:00.506Z,14.30
2018-06-10T10:52:12.927Z,15.40
2018-06-10T10:54:25.386Z,13.80
2018-06-10T10:56:37.855Z,15.50
2018-06-10T10:58:50.302Z,14.73
2018-06-10T11:01:02.750Z,13.43
2018-06-10T11:03:15.199Z,13.83
2018-06-10T11:05:27.621Z,13.33
2018-06-10T11:07:40.094Z,13.20
2018-06-10T11:09:52.491Z,13.70
2018-06-10T11:12:04.913Z,13.20
2018-06-10T11:14:17.306Z,12.67
2018-06-10T11:16:29.759Z,12.00
2018-06-10T11:18:42.170Z,12.67
2018-06-10T11:20:54.557Z,11.60
2018-06-10T11:23:06.995Z,12.57
2018-06-10T11:25:19.442Z,13.47
2018-06-10T11:27:32.192Z,13.37
2018-06-10T11:29:44.662Z,12.93
2018-06-10T11:31:57.238Z,13.87
2018-06-10T11:34:09.870Z,12.33
2018-06-10T11:36:23.110Z,13.53
2018-06-10T11:38:35.493Z,13.60
2018-06-10T11:40:47.956Z,13.13
2018-06-10T11:43:00.284Z,12.97
2018-06-10T11:45:12.718Z,13.33
2018-06-10T11:47:25.175Z,13.30
2018-06-10T11:49:37.554Z,12.70
2018-06-10T11:51:50.006Z,12.30
2018-06-10T11:54:02.422Z,11.93
2018-06-10T11:56:14.850Z,10.90
2018-06-10T11:58:27.286Z,9.47
2018-06-10T12:00:39.787Z,9.27
2018-06-10T12:02:52.183Z,10.87
2018-06-10T12:05:04.619Z,11.10
2018-06-10T12:07:17.031Z,10.63
2018-06-10T12:09:29.410Z,11.20
2018-06-10T12:11:41.884Z,10.93
2018-06-10T12:13:54.298Z,12.30
2018-06-10T12:16:06.687Z,15.77
2018-06-10T12:18:19.216Z,12.83
2018-06-10T12:20:31.616Z,11.73
2018-06-10T12:22:44.133Z,11.57
2018-06-10T12:24:56.506Z,11.90
2018-06-10T12:27:09.038Z,10.87
2018-06-10T12:29:21.518Z,9.80
2018-06-10T12:31:34.006Z,9.30
2018-06-10T12:33:46.511Z,10.47
2018-06-10T12:35:58.939Z,9.43
2018-06-10T12:38:11.387Z,9.70
2018-06-10T12:40:23.787Z,11.20
2018-06-10T12:42:36.192Z,11.00
2018-06-10T12:44:48.550Z,10.33
2018-06-10T12:47:00.983Z,8.70
2018-06-10T12:49:13.449Z,9.90
2018-06-10T12:51:25.846Z,9.03
2018-06-10T12:53:38.328Z,9.73
2018-06-10T12:55:50.793Z,9.10
2018-06-10T12:58:03.391Z,8.23
2018-06-10T13:00:15.842Z,9.30
2018-06-10T13:02:28.374Z,9.70
2018-06-10T13:04:40.767Z,8.97
2018-06-10T13:06:53.191Z,8.70
2018-06-10T13:09:07.230Z,8.43
2018-06-10T13:11:19.713Z,8.50
2018-06-10T13:13:32.096Z,8.50
2018-06-10T13:15:44.526Z,9.00
2018-06-10T13:17:56.997Z,7.60
2018-06-10T13:20:09.459Z,8.43
2018-06-10T13:22:21.821Z,7.83
2018-06-10T13:24:34.230Z,8.40
2018-06-10T13:26:46.650Z,8.67
2018-06-10T13:28:59.037Z,8.27
2018-06-10T13:31:11.442Z,8.63
2018-06-10T13:33:23.842Z,8.37
2018-06-10T13:35:36.282Z,9.13
2018-06-10T13:37:48.646Z,8.53
2018-06-10T13:40:01.026Z,8.23
2018-06-10T13:42:13.474Z,8.17
2018-06-10T13:44:25.961Z,8.60
2018-06-10T13:46:38.417Z,8.40
2018-06-10T13:48:50.845Z,7.90
2018-06-10T13:51:03.223Z,8.00
2018-06-10T13:53:15.646Z,7.43
2018-06-10T13:55:28.099Z,7.40
2018-06-10T13:57:40.511Z,8.37
2018-06-10T13:59:52.956Z,7.30
2018-06-10T14:02:05.570Z,7.43
2018-06-10T14:04:17.987Z,7.10
2018-06-10T14:06:30.414Z,7.70
2018-06-10T14:08:42.837Z,7.43
2018-06-10T14:10:55.203Z,7.50
2018-06-10T14:13:07.708Z,6.90
2018-06-10T14:15:20.165Z,7.10
2018-06-10T14:17:32.597Z,7.13
2018-06-10T14:19:45.152Z,7.50
2018-06-10T14:21:57.586Z,7.57
2018-06-10T14:24:10.023Z,8.00
2018-06-10T14:26:22.402Z,6.27
2018-06-10T14:28:34.771Z,7.07
2018-06-10T14:30:47.189Z,7.80
2018-06-10T14:32:59.576Z,7.77
2018-06-10T14:35:11.988Z,6.93
2018-06-10T14:37:24.414Z,7.20
2018-06-10T14:39:36.838Z,7.37
2018-06-10T14:41:49.220Z,7.00
2018-06-10T14:44:01.769Z,7.07
2018-06-10T14:46:14.182Z,7.40
2018-06-10T14:48:26.599Z,6.77
2018-06-10T14:50:39.205Z,8.00
2018-06-10T14:52:51.618Z,7.27
2018-06-10T14:55:04.153Z,7.57
2018-06-10T14:57:16.609Z,7.73
2018-06-10T14:59:29.018Z,6.90
2018-06-10T15:01:41.399Z,7.87
2018-06-10T15:03:53.800Z,6.97
2018-06-10T15:06:06.246Z,8.57
2018-06-10T15:08:18.648Z,7.70
2018-06-10T15:10:31.082Z,8.27
2018-06-10T15:12:43.482Z,6.80
2018-06-10T15:14:55.870Z,7.73
2018-06-10T15:17:08.247Z,7.77
2018-06-10T15:19:20.809Z,7.83
2018-06-10T15:21:33.260Z,8.20
2018-06-10T15:23:45.657Z,7.83
2018-06-10T15:25:58.010Z,8.07
2018-06-10T15:28:10.754Z,6.47
2018-06-10T15:30:23.153Z,7.87
2018-06-10T15:32:35.545Z,6.97
2018-06-10T15:34:48.109Z,7.43
2018-06-10T15:37:00.616Z,7.47
2018-06-10T15:39:13.121Z,7.17
2018-06-10T15:41:25.562Z,6.70
2018-06-10T15:43:37.970Z,7.17
2018-06-10T15:45:50.347Z,7.00
2018-06-10T15:48:02.833Z,7.87
2018-06-10T15:50:15.287Z,7.30
2018-06-10T15:52:27.883Z,7.57
2018-06-10T15:54:40.241Z,7.03
2018-06-10T15:56:52.708Z,7.40
2018-06-10T15:59:05.157Z,7.27
2018-06-10T16:01:17.583Z,7.27
2018-06-10T16:03:31.092Z,6.67
2018-06-10T16:05:43.480Z,6.77
2018-06-10T16:07:56.147Z,7.03
2018-06-10T16:10:08.549Z,6.80
2018-06-10T16:12:20.986Z,6.60
2018-06-10T16:14:33.577Z,6.33
2018-06-10T16:16:45.941Z,6.07
2018-06-10T16:18:58.430Z,6.20
2018-06-10T16:21:10.887Z,6.90
2018-06-10T16:23:23.258Z,6.83
2018-06-10T16:25:35.658Z,6.80
2018-06-10T16:27:48.060Z,6.23
2018-06-10T16:30:00.495Z,6.67
2018-06-10T16:32:12.905Z,7.10
2018-06-10T16:34:25.314Z,7.77
2018-06-10T16:36:37.683Z,6.60
2018-06-10T16:38:50.151Z,7.23
2018-06-10T16:41:02.581Z,7.03
2018-06-10T16:43:14.945Z,6.87
2018-06-10T16:45:27.386Z,5.63
2018-06-10T16:47:39.747Z,7.27
2018-06-10T16:49:52.121Z,6.60
2018-06-10T16:52:04.626Z,7.10
2018-06-10T16:54:17.030Z,5.77
2018-06-10T16:56:29.470Z,5.90
2018-06-10T16:58:41.890Z,7.10
2018-06-10T17:00:54.378Z,6.60
2018-06-10T17:03:06.800Z,6.73
2018-06-10T17:05:19.884Z,5.97
2018-06-10T17:07:32.358Z,5.43
2018-06-10T17:09:44.757Z,5.30
2018-06-10T17:11:57.367Z,5.37
2018-06-10T17:14:09.746Z,4.80
2018-06-10T17:16:22.247Z,5.00
2018-06-10T17:18:34.654Z,5.17
2018-06-10T17:20:47.089Z,4.90
2018-06-10T17:22:59.471Z,4.57
2018-06-10T17:25:11.915Z,4.40
2018-06-10T17:27:24.363Z,4.30
2018-06-10T17:29:36.817Z,4.47
2018-06-10T17:31:49.364Z,5.10
2018-06-10T17:34:02.289Z,5.03
2018-06-10T17:36:14.795Z,4.13
2018-06-10T17:38:27.213Z,4.80
2018-06-10T17:40:39.718Z,4.47
2018-06-10T17:42:52.195Z,3.80
2018-06-10T17:45:04.662Z,3.20
2018-06-10T17:47:17.073Z,3.17
2018-06-10T17:49:29.517Z,3.30
2018-06-10T17:51:41.985Z,3.63
2018-06-10T17:53:54.596Z,4.30
2018-06-10T17:56:06.899Z,4.50
2018-06-10T17:58:19.375Z,4.83
2018-06-10T18:00:31.815Z,4.93
2018-06-10T18:02:44.248Z,4.10
2018-06-10T18:04:56.879Z,4.03
2018-06-10T18:07:09.265Z,4.37
2018-06-10T18:09:21.769Z,3.90
2018-06-10T18:11:34.171Z,3.30
2018-06-10T18:13:46.532Z,4.00
2018-06-10T18:15:59.094Z,4.17
2018-06-10T18:18:11.495Z,4.17
2018-06-10T18:20:24.004Z,4.40
2018-06-10T18:22:36.867Z,3.80
2018-06-10T18:24:49.323Z,4.20
2018-06-10T18:27:01.734Z,4.53
2018-06-10T18:29:14.228Z,4.07
2018-06-10T18:31:26.696Z,4.30
2018-06-10T18:33:39.170Z,4.30
2018-06-10T18:35:51.747Z,4.40
2018-06-10T18:38:04.158Z,3.97
2018-06-10T18:40:16.627Z,3.60
2018-06-10T18:42:29.047Z,3.93
2018-06-10T18:44:41.667Z,4.10
2018-06-10T18:46:54.116Z,4.30
2018-06-10T18:49:06.695Z,3.83
2018-06-10T18:51:19.107Z,4.10
2018-06-10T18:53:31.523Z,3.63
2018-06-10T18:55:44.134Z,3.20
2018-06-10T18:57:56.627Z,4.13
2018-06-10T19:00:09.030Z,3.90
2018-06-10T19:02:21.457Z,3.97
2018-06-10T19:04:33.938Z,3.53
2018-06-10T19:06:46.658Z,4.30
2018-06-10T19:08:59.058Z,4.63
2018-06-10T19:11:11.479Z,4.43
2018-06-10T19:13:23.930Z,4.10
2018-06-10T19:15:36.380Z,4.37
2018-06-10T19:17:49.459Z,4.47
2018-06-10T19:20:02.001Z,4.00
2018-06-10T19:22:14.454Z,4.20
2018-06-10T19:24:26.859Z,4.37
2018-06-10T19:26:39.278Z,4.13
2018-06-10T19:28:51.751Z,4.10
2018-06-10T19:31:04.207Z,4.83
2018-06-10T19:33:16.674Z,4.37
2018-06-10T19:35:29.135Z,4.57
2018-06-10T19:37:41.614Z,3.97
2018-06-10T19:39:54.092Z,4.07
2018-06-10T19:42:06.529Z,4.80
2018-06-10T19:44:18.965Z,4.30
2018-06-10T19:46:31.469Z,3.90
2018-06-10T19:48:43.959Z,3.77
2018-06-10T19:50:56.322Z,4.03
2018-06-10T19:53:08.806Z,3.13
2018-06-10T19:55:21.243Z,4.27
2018-06-10T19:57:33.738Z,3.50
2018-06-10T19:59:46.184Z,3.77
2018-06-10T20:01:58.590Z,3.67
2018-06-10T20:04:11.175Z,3.70
2018-06-10T20:06:23.688Z,4.10
2018-06-10T20:08:37.106Z,5.30
2018-06-10T20:10:49.482Z,5.53
2018-06-10T20:13:01.847Z,4.73
2018-06-10T20:15:14.272Z,4.50
2018-06-10T20:17:26.671Z,3.87
2018-06-10T20:19:39.143Z,3.67
2018-06-10T20:21:51.699Z,4.20
2018-06-10T20:24:04.237Z,4.37
2018-06-10T20:26:18.026Z,4.13
2018-06-10T20:28:30.388Z,3.27
2018-06-10T20:30:42.947Z,4.40
2018-06-10T20:32:55.443Z,3.83
2018-06-10T20:35:07.852Z,4.07
2018-06-10T20:37:20.536Z,4.30
2018-06-10T20:39:32.943Z,3.97
2018-06-10T20:41:45.378Z,5.40
2018-06-10T20:43:58.029Z,5.33
2018-06-10T20:46:10.504Z,4.00
2018-06-10T20:48:22.923Z,4.00
2018-06-10T20:50:35.306Z,4.43
2018-06-10T20:52:47.742Z,4.30
2018-06-10T20:55:00.105Z,4.57
2018-06-10T20:57:12.549Z,4.77
2018-06-10T20:59:25.167Z,4.03
2018-06-10T21:01:37.754Z,5.10
2018-06-10T21:03:50.157Z,4.60
2018-06-10T21:06:02.784Z,4.63
2018-06-10T21:08:15.231Z,5.10
2018-06-10T21:10:27.572Z,5.13
2018-06-10T21:12:39.981Z,5.10
2018-06-10T21:14:52.463Z,4.57
2018-06-10T21:17:05.080Z,4.00
2018-06-10T21:19:17.580Z,3.83
2018-06-10T21:21:30.020Z,4.40
2018-06-10T21:23:42.446Z,6.07
2018-06-10T21:25:54.902Z,5.03
2018-06-10T21:28:07.451Z,4.23
2018-06-10T21:30:19.895Z,4.37
2018-06-10T21:32:32.406Z,3.90
2018-06-10T21:34:44.888Z,5.30
2018-06-10T21:36:57.515Z,4.53
2018-06-10T21:39:09.923Z,4.97
2018-06-10T21:41:22.330Z,4.77
2018-06-10T21:43:34.803Z,4.80
2018-06-10T21:45:47.219Z,4.33
2018-06-10T21:47:59.654Z,5.17
2018-06-10T21:50:12.089Z,5.10
2018-06-10T21:52:24.471Z,5.47
2018-06-10T21:54:37.016Z,3.93
2018-06-10T21:56:49.467Z,4.80
2018-06-10T21:59:01.930Z,4.73
2018-06-10T22:01:14.438Z,5.53
2018-06-10T22:03:26.951Z,5.57
2018-06-10T22:05:39.319Z,4.83
2018-06-10T22:07:51.818Z,5.07
2018-06-10T22:10:04.282Z,6.00
2018-06-10T22:12:16.798Z,5.30
2018-06-10T22:14:29.195Z,5.53
2018-06-10T22:16:41.611Z,5.43
2018-06-10T22:18:53.946Z,5.13
2018-06-10T22:21:06.359Z,5.97
2018-06-10T22:23:18.762Z,5.43
2018-06-10T22:25:31.147Z,5.77
2018-06-10T22:27:43.571Z,5.50
2018-06-10T22:29:56.014Z,5.70
2018-06-10T22:32:08.454Z,5.80
2018-06-10T22:34:20.794Z,5.50
2018-06-10T22:36:33.201Z,5.37
2018-06-10T22:38:45.703Z,5.50
2018-06-10T22:40:58.158Z,5.20
2018-06-10T22:43:10.556Z,4.80
2018-06-10T22:45:23.011Z,5.80
2018-06-10T22:47:35.419Z,4.80
2018-06-10T22:49:47.877Z,6.17
2018-06-10T22:52:00.250Z,5.47
2018-06-10T22:54:36.815Z,5.60
2018-06-10T22:56:49.350Z,4.80
2018-06-10T22:59:01.824Z,5.30
2018-06-10T23:01:14.328Z,5.37
2018-06-10T23:03:26.687Z,5.90
2018-06-10T23:05:39.076Z,5.53
2018-06-10T23:07:51.496Z,6.03
2018-06-10T23:10:03.995Z,5.47
2018-06-10T23:12:16.510Z,5.47
2018-06-10T23:14:28.883Z,4.77
2018-06-10T23:16:41.222Z,5.07
2018-06-10T23:18:53.748Z,5.73
2018-06-10T23:21:06.216Z,6.37
2018-06-10T23:23:18.630Z,5.97
2018-06-10T23:25:31.016Z,5.00
2018-06-10T23:27:43.484Z,6.00
2018-06-10T23:29:55.889Z,5.73
2018-06-10T23:32:08.327Z,4.50
2018-06-10T23:34:20.710Z,4.60
2018-06-10T23:36:33.132Z,4.53
2018-06-10T23:38:45.529Z,5.80
2018-06-10T23:40:57.913Z,4.77
2018-06-10T23:43:10.342Z,5.40
2018-06-10T23:45:22.762Z,5.67
2018-06-10T23:47:35.190Z,5.13
2018-06-10T23:49:47.589Z,5.73
2018-06-10T23:52:00.145Z,6.23
2018-06-10T23:54:12.743Z,6.17
2018-06-10T23:56:25.095Z,6.20
2018-06-10T23:58:37.563Z,6.30
